createdAt,value
2019-01-22T00:02:10.144Z,57.15
2019-01-22T00:04:38.430Z,57.35
2019-01-22T00:07:06.721Z,56.13
2019-01-22T00:09:35.126Z,55.88
2019-01-22T00:12:04.221Z,56.48
2019-01-22T00:14:32.511Z,55.65
2019-01-22T00:17:00.757Z,57.70
2019-01-22T00:19:29.009Z,60.28
2019-01-22T00:21:57.291Z,58.30
2019-01-22T00:24:25.576Z,56.95
2019-01-22T00:26:53.840Z,56.92
2019-01-22T00:29:22.136Z,57.53
2019-01-22T00:31:50.377Z,57.95
2019-01-22T00:34:18.661Z,60.50
2019-01-22T00:36:47.084Z,61.85
2019-01-22T00:39:15.809Z,60.33
2019-01-22T00:41:44.102Z,57.43
2019-01-22T00:44:12.394Z,61.85
2019-01-22T00:46:40.646Z,61.98
2019-01-22T00:49:08.892Z,65.00
2019-01-22T00:51:37.285Z,64.60
2019-01-22T00:54:05.815Z,64.80
2019-01-22T00:56:34.068Z,66.42
2019-01-22T00:59:02.354Z,64.92
2019-01-22T01:01:30.604Z,64.65
2019-01-22T01:03:58.888Z,63.25
2019-01-22T01:06:27.174Z,60.30
2019-01-22T01:08:55.783Z,60.25
2019-01-22T01:11:24.100Z,62.45
2019-01-22T01:13:52.347Z,65.87
2019-01-22T01:16:20.595Z,73.78
2019-01-22T01:18:48.891Z,60.65
2019-01-22T01:21:17.139Z,56.37
2019-01-22T01:23:45.586Z,61.58
2019-01-22T01:26:13.862Z,60.92
2019-01-22T01:28:42.107Z,62.55
2019-01-22T01:31:10.387Z,65.95
2019-01-22T01:33:38.636Z,63.73
2019-01-22T01:36:06.918Z,63.33
2019-01-22T01:38:35.478Z,65.50
2019-01-22T01:41:04.251Z,64.30
2019-01-22T01:43:32.545Z,62.80
2019-01-22T01:46:00.793Z,67.40
2019-01-22T01:48:29.037Z,70.40
2019-01-22T01:50:57.330Z,65.17
2019-01-22T01:53:25.960Z,63.83
2019-01-22T01:55:54.239Z,63.02
2019-01-22T01:58:22.483Z,59.88
2019-01-22T02:00:50.766Z,64.45
2019-01-22T02:03:19.010Z,62.97
2019-01-22T02:05:47.289Z,65.25
2019-01-22T02:08:15.807Z,61.70
2019-01-22T02:10:44.109Z,62.25
2019-01-22T02:13:12.356Z,62.15
2019-01-22T02:15:46.414Z,63.33
2019-01-22T02:18:20.725Z,60.38
2019-01-22T02:20:58.205Z,62.30
2019-01-22T02:23:32.618Z,59.40
2019-01-22T02:26:04.162Z,57.85
2019-01-22T02:28:41.721Z,59.27
2019-01-22T02:31:28.541Z,59.65
2019-01-22T02:34:02.735Z,62.08
2019-01-22T02:36:50.618Z,60.40
2019-01-22T02:39:24.681Z,56.65
2019-01-22T02:41:56.193Z,61.15
2019-01-22T02:44:30.754Z,65.12
2019-01-22T02:47:08.402Z,59.58
2019-01-22T02:50:04.278Z,59.08
2019-01-22T02:52:41.838Z,60.00
2019-01-22T02:55:13.396Z,59.37
2019-01-22T02:57:51.208Z,60.88
2019-01-22T03:00:57.916Z,63.52
2019-01-22T03:03:35.393Z,65.37
2019-01-22T03:06:28.180Z,62.60
2019-01-22T03:09:18.845Z,64.55
2019-01-22T03:11:56.578Z,60.30
2019-01-22T03:15:01.474Z,69.67
2019-01-22T03:17:54.131Z,64.65
2019-01-22T03:20:41.015Z,63.53
2019-01-22T03:23:24.185Z,64.60
2019-01-22T03:26:07.340Z,69.53
2019-01-22T03:28:51.015Z,62.43
2019-01-22T03:31:25.150Z,65.62
2019-01-22T03:34:05.249Z,67.15
2019-01-22T03:36:51.786Z,69.47
2019-01-22T03:39:26.395Z,65.03
2019-01-22T03:42:16.031Z,68.45
2019-01-22T03:44:59.201Z,71.90
2019-01-22T03:47:42.578Z,64.42
2019-01-22T03:50:14.128Z,69.25
2019-01-22T03:52:46.038Z,74.30
2019-01-22T03:55:29.414Z,67.55
2019-01-22T03:57:57.672Z,68.85
2019-01-22T04:00:26.098Z,68.70
2019-01-22T04:02:54.623Z,69.60
2019-01-22T04:05:22.910Z,71.30
2019-01-22T04:07:51.157Z,75.22
2019-01-22T04:10:22.664Z,72.40
2019-01-22T04:12:50.954Z,71.60
2019-01-22T04:15:22.496Z,74.97
2019-01-22T04:17:51.053Z,72.75
2019-01-22T04:20:19.299Z,71.28
2019-01-22T04:22:48.819Z,70.32
2019-01-22T04:25:44.064Z,76.92
2019-01-22T04:28:34.860Z,76.33
2019-01-22T04:31:10.262Z,74.97
2019-01-22T04:34:06.779Z,80.75
2019-01-22T04:37:05.623Z,73.28
2019-01-22T04:39:43.041Z,78.72
2019-01-22T04:42:14.580Z,78.75
2019-01-22T04:44:54.946Z,75.37
2019-01-22T04:47:41.597Z,77.30
2019-01-22T04:50:22.366Z,74.37
2019-01-22T04:53:08.744Z,72.90
2019-01-22T04:55:48.529Z,76.77
2019-01-22T04:58:20.072Z,78.25
2019-01-22T05:01:03.023Z,74.90
2019-01-22T05:03:37.562Z,80.38
2019-01-22T05:06:21.078Z,76.10
2019-01-22T05:08:58.219Z,75.55
2019-01-22T05:11:41.762Z,78.37
2019-01-22T05:14:22.071Z,79.82
2019-01-22T05:16:56.180Z,75.72
2019-01-22T05:19:30.708Z,74.50
2019-01-22T05:22:19.676Z,74.53
2019-01-22T05:25:06.313Z,74.27
2019-01-22T05:27:41.114Z,73.92
2019-01-22T05:30:15.602Z,74.97
2019-01-22T05:33:06.406Z,78.65
2019-01-22T05:35:40.752Z,77.95
2019-01-22T05:38:21.337Z,73.30
2019-01-22T05:41:15.648Z,76.97
2019-01-22T05:44:09.841Z,73.07
2019-01-22T05:46:59.541Z,82.92
2019-01-22T05:50:06.386Z,72.62
2019-01-22T05:52:58.921Z,75.67
2019-01-22T05:55:39.093Z,82.50
2019-01-22T05:58:24.927Z,76.22
2019-01-22T06:00:56.497Z,76.95
2019-01-22T06:03:31.050Z,71.55
2019-01-22T06:06:17.827Z,73.05
2019-01-22T06:08:52.188Z,74.22
2019-01-22T06:11:29.319Z,72.27
2019-01-22T06:14:19.016Z,74.10
2019-01-22T06:17:05.414Z,76.05
2019-01-22T06:19:54.575Z,70.65
2019-01-22T06:22:49.068Z,75.28
2019-01-22T06:25:49.873Z,75.20
2019-01-22T06:28:33.201Z,73.80
2019-01-22T06:31:10.300Z,70.92
2019-01-22T06:33:47.583Z,67.27
2019-01-22T06:36:27.695Z,71.50
2019-01-22T06:39:15.931Z,78.33
2019-01-22T06:42:03.916Z,76.45
2019-01-22T06:44:47.410Z,68.75
2019-01-22T06:47:24.544Z,70.25
2019-01-22T06:50:01.991Z,73.52
2019-01-22T06:52:39.340Z,72.37
2019-01-22T06:55:13.643Z,68.40
2019-01-22T06:57:48.145Z,66.53
2019-01-22T07:00:22.447Z,63.95
2019-01-22T07:02:56.830Z,66.25
2019-01-22T07:05:42.687Z,69.62
2019-01-22T07:08:18.466Z,65.22
2019-01-22T07:10:52.696Z,62.33
2019-01-22T07:13:30.043Z,62.13
2019-01-22T07:16:07.443Z,63.85
2019-01-22T07:18:44.497Z,61.40
2019-01-22T07:21:27.635Z,62.08
2019-01-22T07:24:14.198Z,64.27
2019-01-22T07:27:05.383Z,62.30
2019-01-22T07:29:58.188Z,59.90
2019-01-22T07:32:29.693Z,53.75
2019-01-22T07:35:10.327Z,60.23
2019-01-22T07:37:41.831Z,54.98
2019-01-22T07:40:27.907Z,59.83
2019-01-22T07:43:02.269Z,58.00
2019-01-22T07:45:39.579Z,59.30
2019-01-22T07:48:11.086Z,54.05
2019-01-22T07:50:54.701Z,54.18
2019-01-22T07:53:26.206Z,62.03
2019-01-22T07:56:17.356Z,63.25
2019-01-22T07:58:51.840Z,60.08
2019-01-22T08:01:26.341Z,58.85
2019-01-22T08:04:14.212Z,64.10
2019-01-22T08:07:02.266Z,63.70
2019-01-22T08:09:33.807Z,56.68
2019-01-22T08:12:26.337Z,57.27
2019-01-22T08:14:57.891Z,58.40
2019-01-22T08:17:47.609Z,52.30
2019-01-22T08:20:53.816Z,56.53
2019-01-22T08:23:31.386Z,52.73
2019-01-22T08:26:23.549Z,53.60
2019-01-22T08:29:03.928Z,52.55
2019-01-22T08:31:55.049Z,49.18
2019-01-22T08:34:38.722Z,43.87
2019-01-22T08:37:29.781Z,50.17
2019-01-22T08:40:06.990Z,46.08
2019-01-22T08:42:50.772Z,44.83
2019-01-22T08:45:28.543Z,41.13
2019-01-22T08:48:03.205Z,41.00
2019-01-22T08:50:37.483Z,42.75
2019-01-22T08:53:11.759Z,41.80
2019-01-22T08:55:54.618Z,38.47
2019-01-22T08:58:38.192Z,36.58
2019-01-22T09:01:18.601Z,37.48
2019-01-22T09:04:05.269Z,35.15
2019-01-22T09:06:59.571Z,34.50
2019-01-22T09:09:42.652Z,31.75
2019-01-22T09:12:32.041Z,32.05
2019-01-22T09:15:36.712Z,25.95
2019-01-22T09:18:35.630Z,23.67
2019-01-22T09:21:10.193Z,23.95
2019-01-22T09:24:01.768Z,20.52
2019-01-22T09:26:33.495Z,22.20
2019-01-22T09:29:11.215Z,20.75
2019-01-22T09:31:58.066Z,21.48
2019-01-22T09:35:01.511Z,24.25
2019-01-22T09:37:32.107Z,23.80
2019-01-22T09:40:00.404Z,22.42
2019-01-22T09:42:28.647Z,24.30
2019-01-22T09:44:56.927Z,23.85
2019-01-22T09:47:25.170Z,22.48
2019-01-22T09:49:53.447Z,22.35
2019-01-22T09:52:21.727Z,20.40
2019-01-22T09:54:50.012Z,21.02
2019-01-22T09:57:18.252Z,19.50
2019-01-22T09:59:46.534Z,19.35
2019-01-22T10:02:14.820Z,19.60
2019-01-22T10:04:43.072Z,22.30
2019-01-22T10:07:11.357Z,26.90
2019-01-22T10:09:39.712Z,25.10
2019-01-22T10:12:07.996Z,19.73
2019-01-22T10:14:36.234Z,23.75
2019-01-22T10:17:04.527Z,24.50
2019-01-22T10:19:32.777Z,21.02
2019-01-22T10:22:01.015Z,22.80
2019-01-22T10:24:30.420Z,23.70
2019-01-22T10:26:58.710Z,22.70
2019-01-22T10:29:26.955Z,27.07
2019-01-22T10:31:55.198Z,22.93
2019-01-22T10:34:23.483Z,26.00
2019-01-22T10:36:51.765Z,24.82
2019-01-22T10:39:20.007Z,23.87
2019-01-22T10:41:48.286Z,26.68
2019-01-22T10:44:16.535Z,23.12
2019-01-22T10:46:44.811Z,22.22
2019-01-22T10:49:13.055Z,23.10
2019-01-22T10:51:41.327Z,25.62
2019-01-22T10:54:09.613Z,20.80
2019-01-22T10:56:37.882Z,28.15
2019-01-22T10:59:06.126Z,26.23
2019-01-22T11:01:34.413Z,25.68
2019-01-22T11:04:02.661Z,20.77
2019-01-22T11:06:30.954Z,23.75
2019-01-22T11:08:59.203Z,24.60
2019-01-22T11:11:27.502Z,24.60
2019-01-22T11:13:55.742Z,22.90
2019-01-22T11:16:23.982Z,24.92
2019-01-22T11:18:52.314Z,21.40
2019-01-22T11:21:20.554Z,23.57
2019-01-22T11:23:48.831Z,23.98
2019-01-22T11:26:17.104Z,29.07
2019-01-22T11:28:45.347Z,22.48
2019-01-22T11:31:13.630Z,23.27
2019-01-22T11:33:41.880Z,23.22
2019-01-22T11:36:10.153Z,23.17
2019-01-22T11:38:38.394Z,21.02
2019-01-22T11:41:06.684Z,23.38
2019-01-22T11:43:34.927Z,20.82
2019-01-22T11:46:04.215Z,21.00
2019-01-22T11:48:32.501Z,23.47
2019-01-22T11:51:00.761Z,20.45
2019-01-22T11:53:29.023Z,22.45
2019-01-22T11:55:57.300Z,24.15
2019-01-22T11:58:25.580Z,26.07
2019-01-22T12:00:55.432Z,20.52
2019-01-22T12:03:23.686Z,19.12
2019-01-22T12:05:53.379Z,20.75
2019-01-22T12:08:21.695Z,23.95
2019-01-22T12:10:49.937Z,22.48
2019-01-22T12:13:18.273Z,29.87
2019-01-22T12:15:46.553Z,23.83
2019-01-22T12:18:14.840Z,25.37
2019-01-22T12:20:44.623Z,26.13
2019-01-22T12:23:12.864Z,23.35
2019-01-22T12:25:41.160Z,21.33
2019-01-22T12:28:09.406Z,22.30
2019-01-22T12:30:38.221Z,18.65
2019-01-22T12:33:06.570Z,18.98
2019-01-22T12:35:34.811Z,25.48
2019-01-22T12:38:03.094Z,24.57
2019-01-22T12:40:31.356Z,21.55
2019-01-22T12:42:59.648Z,23.18
2019-01-22T12:45:36.344Z,25.30
2019-01-22T12:48:05.319Z,24.02
2019-01-22T12:50:33.622Z,24.65
2019-01-22T12:53:01.874Z,26.12
2019-01-22T12:55:30.145Z,24.10
2019-01-22T12:57:58.431Z,27.85
2019-01-22T13:00:31.599Z,24.95
2019-01-22T13:02:59.882Z,33.00
2019-01-22T13:05:34.499Z,27.80
2019-01-22T13:08:02.739Z,29.82
2019-01-22T13:10:31.011Z,32.90
2019-01-22T13:12:59.299Z,29.85
2019-01-22T13:15:27.575Z,29.85
2019-01-22T13:17:55.817Z,27.82
2019-01-22T13:20:24.170Z,30.70
2019-01-22T13:22:52.450Z,30.17
2019-01-22T13:25:20.984Z,28.60
2019-01-22T13:27:49.570Z,31.05
2019-01-22T13:30:28.456Z,31.40
2019-01-22T13:32:56.694Z,27.93
2019-01-22T13:35:24.979Z,30.72
2019-01-22T13:37:53.253Z,33.45
2019-01-22T13:40:21.516Z,33.33
2019-01-22T13:42:49.790Z,34.33
2019-01-22T13:45:33.563Z,34.47
2019-01-22T13:48:03.691Z,35.73
2019-01-22T13:50:31.939Z,35.55
2019-01-22T13:53:00.225Z,36.73
2019-01-22T13:55:34.252Z,37.65
2019-01-22T13:58:02.534Z,39.20
2019-01-22T14:00:30.847Z,32.95
2019-01-22T14:03:00.673Z,33.48
2019-01-22T14:05:28.959Z,31.93
2019-01-22T14:07:57.246Z,34.13
2019-01-22T14:10:25.538Z,35.17
2019-01-22T14:12:53.801Z,33.42
2019-01-22T14:15:24.984Z,32.17
2019-01-22T14:17:53.224Z,31.05
2019-01-22T14:20:21.514Z,31.15
2019-01-22T14:22:49.792Z,33.02
2019-01-22T14:25:20.318Z,32.97
2019-01-22T14:27:48.597Z,33.95
2019-01-22T14:30:22.685Z,32.48
2019-01-22T14:32:50.964Z,31.60
2019-01-22T14:35:19.203Z,32.93
2019-01-22T14:37:47.632Z,30.82
2019-01-22T14:40:15.912Z,36.28
2019-01-22T14:42:44.205Z,36.08
2019-01-22T14:45:17.462Z,38.38
2019-01-22T14:47:45.759Z,33.20
2019-01-22T14:50:22.506Z,35.77
2019-01-22T14:52:50.788Z,37.80
2019-01-22T14:55:19.067Z,36.23
2019-01-22T14:57:47.704Z,35.40
2019-01-22T15:00:20.890Z,36.50
2019-01-22T15:02:49.175Z,34.13
2019-01-22T15:05:17.420Z,33.78
2019-01-22T15:07:45.705Z,35.63
2019-01-22T15:10:15.929Z,35.55
2019-01-22T15:12:45.153Z,36.95
2019-01-22T15:15:15.330Z,35.10
2019-01-22T15:17:43.613Z,38.17
2019-01-22T15:20:20.454Z,37.38
2019-01-22T15:22:48.739Z,39.25
2019-01-22T15:25:17.128Z,42.67
2019-01-22T15:27:45.752Z,38.60
2019-01-22T15:30:28.292Z,40.12
2019-01-22T15:32:56.608Z,39.50
2019-01-22T15:35:24.854Z,42.45
2019-01-22T15:37:53.139Z,43.48
2019-01-22T15:40:26.138Z,44.10
2019-01-22T15:42:54.396Z,42.00
2019-01-22T15:45:23.000Z,46.90
2019-01-22T15:47:51.286Z,41.25
2019-01-22T15:50:21.107Z,42.95
2019-01-22T15:52:49.497Z,45.38
2019-01-22T15:55:21.047Z,45.67
2019-01-22T15:57:49.291Z,43.87
2019-01-22T16:00:19.523Z,41.60
2019-01-22T16:02:47.813Z,44.73
2019-01-22T16:05:16.055Z,48.10
2019-01-22T16:07:44.303Z,45.05
2019-01-22T16:10:13.185Z,42.70
2019-01-22T16:12:41.478Z,45.67
2019-01-22T16:15:12.817Z,45.48
2019-01-22T16:17:41.058Z,43.92
2019-01-22T16:20:17.997Z,41.73
2019-01-22T16:22:46.279Z,43.78
2019-01-22T16:25:14.520Z,42.27
2019-01-22T16:27:43.177Z,43.08
2019-01-22T16:30:17.211Z,45.38
2019-01-22T16:32:45.495Z,44.48
2019-01-22T16:35:18.820Z,46.18
2019-01-22T16:37:47.108Z,45.95
2019-01-22T16:40:16.482Z,45.00
2019-01-22T16:42:45.199Z,44.25
2019-01-22T16:45:24.947Z,44.27
2019-01-22T16:47:53.352Z,44.80
2019-01-22T16:50:22.055Z,44.98
2019-01-22T16:52:50.468Z,45.95
2019-01-22T16:55:24.750Z,47.17
2019-01-22T16:57:52.996Z,52.05
2019-01-22T17:00:24.126Z,46.25
2019-01-22T17:02:52.538Z,50.03
2019-01-22T17:05:20.842Z,50.73
2019-01-22T17:07:49.090Z,49.38
2019-01-22T17:10:19.237Z,51.45
2019-01-22T17:12:47.556Z,44.98
2019-01-22T17:15:16.780Z,50.70
2019-01-22T17:17:45.025Z,49.95
2019-01-22T17:20:24.908Z,51.80
2019-01-22T17:22:53.215Z,53.40
2019-01-22T17:25:23.170Z,51.40
2019-01-22T17:27:51.467Z,55.12
2019-01-22T17:30:22.349Z,56.25
2019-01-22T17:32:52.231Z,51.25
2019-01-22T17:35:20.651Z,51.98
2019-01-22T17:37:48.901Z,52.27
2019-01-22T17:40:17.156Z,54.10
2019-01-22T17:42:45.463Z,57.30
2019-01-22T17:45:13.747Z,55.05
2019-01-22T17:47:42.109Z,55.80
2019-01-22T17:50:12.863Z,54.20
2019-01-22T17:52:41.185Z,54.03
2019-01-22T17:55:11.871Z,55.58
2019-01-22T17:57:40.170Z,62.43
2019-01-22T18:00:16.194Z,55.74
2019-01-22T18:02:44.483Z,56.50
2019-01-22T18:05:15.206Z,58.25
2019-01-22T18:07:43.521Z,54.60
2019-01-22T18:10:14.471Z,58.52
2019-01-22T18:12:42.734Z,57.55
2019-01-22T18:15:13.663Z,57.17
2019-01-22T18:17:41.981Z,56.13
2019-01-22T18:20:13.274Z,58.95
2019-01-22T18:22:41.553Z,58.80
2019-01-22T18:25:10.785Z,58.78
2019-01-22T18:27:39.084Z,59.33
2019-01-22T18:30:13.432Z,53.38
2019-01-22T18:32:41.691Z,56.60
2019-01-22T18:35:22.065Z,59.13
2019-01-22T18:37:50.335Z,58.63
2019-01-22T18:40:19.410Z,60.10
2019-01-22T18:42:47.675Z,61.20
2019-01-22T18:45:17.514Z,62.38
2019-01-22T18:47:45.761Z,61.30
2019-01-22T18:50:23.147Z,61.60
2019-01-22T18:52:51.681Z,60.17
2019-01-22T18:55:21.449Z,63.17
2019-01-22T18:57:50.299Z,63.52
2019-01-22T19:00:22.837Z,66.50
2019-01-22T19:02:51.686Z,67.90
2019-01-22T19:05:20.085Z,64.62
2019-01-22T19:07:48.456Z,65.60
2019-01-22T19:10:22.546Z,64.17
2019-01-22T19:12:50.980Z,65.45
2019-01-22T19:15:19.856Z,64.12
2019-01-22T19:17:48.156Z,64.70
2019-01-22T19:20:16.560Z,68.60
2019-01-22T19:22:44.803Z,67.45
2019-01-22T19:25:21.742Z,65.00
2019-01-22T19:27:50.036Z,71.42
2019-01-22T19:30:29.278Z,68.15
2019-01-22T19:32:57.593Z,66.35
2019-01-22T19:35:25.839Z,66.17
2019-01-22T19:37:54.144Z,64.03
2019-01-22T19:40:22.399Z,65.60
2019-01-22T19:42:50.693Z,67.05
2019-01-22T19:45:24.697Z,69.70
2019-01-22T19:47:52.936Z,66.97
2019-01-22T19:50:21.249Z,70.13
2019-01-22T19:52:49.490Z,72.58
2019-01-22T19:55:17.742Z,68.50
2019-01-22T19:57:46.035Z,64.25
2019-01-22T20:00:19.732Z,69.55
2019-01-22T20:02:47.982Z,67.50
2019-01-22T20:05:16.301Z,68.65
2019-01-22T20:07:44.623Z,71.53
2019-01-22T20:10:17.326Z,72.12
2019-01-22T20:12:45.590Z,69.92
2019-01-22T20:15:21.252Z,69.70
2019-01-22T20:17:49.494Z,73.83
2019-01-22T20:20:18.985Z,71.53
2019-01-22T20:22:47.278Z,71.85
2019-01-22T20:25:16.339Z,68.90
2019-01-22T20:27:48.294Z,65.80
2019-01-22T20:30:18.001Z,73.12
2019-01-22T20:32:46.357Z,74.10
2019-01-22T20:35:14.603Z,73.10
2019-01-22T20:37:42.899Z,70.52
2019-01-22T20:40:15.404Z,71.47
2019-01-22T20:42:43.693Z,75.25
2019-01-22T20:45:17.082Z,74.90
2019-01-22T20:47:45.370Z,70.78
2019-01-22T20:50:18.987Z,71.53
2019-01-22T20:52:44.964Z,76.90
2019-01-22T20:55:18.285Z,73.47
2019-01-22T20:57:46.573Z,76.45
2019-01-22T21:00:19.641Z,77.37
2019-01-22T21:02:47.928Z,75.97
2019-01-22T21:05:18.388Z,79.75
2019-01-22T21:07:46.843Z,73.72
2019-01-22T21:10:21.547Z,76.13
2019-01-22T21:12:49.860Z,81.35
2019-01-22T21:15:18.113Z,78.90
2019-01-22T21:17:46.400Z,77.20
2019-01-22T21:20:18.168Z,77.05
2019-01-22T21:22:46.495Z,81.08
2019-01-22T21:25:19.757Z,77.62
2019-01-22T21:27:48.000Z,77.20
2019-01-22T21:30:19.347Z,78.25
2019-01-22T21:32:47.591Z,81.42
2019-01-22T21:35:15.835Z,75.32
2019-01-22T21:37:44.139Z,84.32
2019-01-22T21:40:14.132Z,78.05
2019-01-22T21:42:42.423Z,81.17
2019-01-22T21:45:20.044Z,80.22
2019-01-22T21:47:48.330Z,83.35
2019-01-22T21:50:16.576Z,80.20
2019-01-22T21:52:44.930Z,81.30
2019-01-22T21:55:15.416Z,88.90
2019-01-22T21:57:43.699Z,77.20
2019-01-22T22:00:15.596Z,72.27
2019-01-22T22:02:44.547Z,79.65
2019-01-22T22:05:13.333Z,84.60
2019-01-22T22:07:41.620Z,81.57
2019-01-22T22:10:15.471Z,83.45
2019-01-22T22:12:43.789Z,83.03
2019-01-22T22:15:14.771Z,82.83
2019-01-22T22:17:43.061Z,90.92
2019-01-22T22:20:15.449Z,86.60
2019-01-22T22:22:43.694Z,87.08
2019-01-22T22:25:17.596Z,85.97
2019-01-22T22:27:45.838Z,86.60
2019-01-22T22:30:16.928Z,90.38
2019-01-22T22:32:45.185Z,94.07
2019-01-22T22:35:13.426Z,88.58
2019-01-22T22:37:41.827Z,90.22
2019-01-22T22:40:15.586Z,92.42
2019-01-22T22:42:43.873Z,95.55
2019-01-22T22:45:15.053Z,88.07
2019-01-22T22:47:43.340Z,93.22
2019-01-22T22:50:19.814Z,95.28
2019-01-22T22:52:48.307Z,96.63
2019-01-22T22:55:16.714Z,93.47
2019-01-22T22:57:44.972Z,90.62
2019-01-22T23:00:33.260Z,88.85
2019-01-22T23:03:02.252Z,89.17
2019-01-22T23:05:30.502Z,89.97
2019-01-22T23:07:58.794Z,94.80
2019-01-22T23:10:27.055Z,91.83
2019-01-22T23:12:55.533Z,94.60
2019-01-22T23:15:23.782Z,88.37
2019-01-22T23:17:52.025Z,92.00
2019-01-22T23:20:20.423Z,102.15
2019-01-22T23:22:48.664Z,90.83
2019-01-22T23:25:16.941Z,96.82
2019-01-22T23:27:45.554Z,95.12
2019-01-22T23:30:15.855Z,97.92
2019-01-22T23:32:45.335Z,98.82
2019-01-22T23:35:13.617Z,99.07
2019-01-22T23:37:41.892Z,95.62
2019-01-22T23:40:14.495Z,99.67
2019-01-22T23:42:42.778Z,97.10
2019-01-22T23:45:12.273Z,101.78
2019-01-22T23:47:40.528Z,100.05
2019-01-22T23:50:11.246Z,99.88
2019-01-22T23:52:39.607Z,100.10
2019-01-22T23:55:08.836Z,103.50
2019-01-22T23:57:37.086Z,100.97
